createdAt,value
2018-01-03T00:02:25.189Z,17.27
2018-01-03T00:04:52.808Z,14.48
2018-01-03T00:07:20.733Z,9.70
2018-01-03T00:09:48.473Z,11.68
2018-01-03T00:12:16.728Z,11.15
2018-01-03T00:14:44.321Z,20.60
2018-01-03T00:17:14.571Z,10.43
2018-01-03T00:19:42.158Z,10.60
2018-01-03T00:22:15.395Z,10.13
2018-01-03T00:24:43.144Z,7.93
2018-01-03T00:27:11.133Z,8.38
2018-01-03T00:29:38.998Z,10.45
2018-01-03T00:32:08.301Z,8.07
2018-01-03T00:34:36.287Z,11.90
2018-01-03T00:37:10.973Z,6.90
2018-01-03T00:39:42.845Z,9.98
2018-01-03T00:42:11.794Z,9.20
2018-01-03T00:44:42.357Z,12.18
2018-01-03T00:47:11.506Z,10.07
2018-01-03T00:49:39.887Z,11.43
2018-01-03T00:52:08.915Z,10.00
2018-01-03T00:54:36.674Z,10.70
2018-01-03T00:57:05.356Z,10.27
2018-01-03T00:59:33.314Z,10.13
2018-01-03T01:02:02.657Z,6.72
2018-01-03T01:04:30.539Z,10.60
2018-01-03T01:06:58.355Z,10.68
2018-01-03T01:09:28.279Z,7.60
2018-01-03T01:11:57.680Z,9.95
2018-01-03T01:14:25.465Z,10.05
2018-01-03T01:16:53.124Z,11.52
2018-01-03T01:19:23.501Z,8.68
2018-01-03T01:21:56.826Z,7.12
2018-01-03T01:24:29.998Z,6.65
2018-01-03T01:26:59.877Z,8.65
2018-01-03T02:34:45.361Z,5.40
2018-01-03T02:37:14.104Z,5.90
2018-01-03T02:39:41.737Z,11.93
2018-01-03T02:42:09.291Z,5.55
2018-01-03T02:44:37.821Z,4.87
2018-01-03T02:47:05.406Z,7.62
2018-01-03T02:49:34.222Z,9.52
2018-01-03T02:52:03.089Z,5.32
2018-01-03T02:54:31.793Z,5.68
2018-01-03T02:57:02.098Z,6.35
2018-01-03T02:59:32.541Z,5.57
2018-01-03T03:02:05.035Z,5.37
2018-01-03T03:04:32.570Z,6.68
2018-01-03T03:07:00.447Z,6.75
2018-01-03T03:09:30.917Z,4.30
2018-01-03T03:11:58.644Z,5.65
2018-01-03T03:14:41.968Z,4.82
2018-01-03T03:17:09.613Z,5.93
2018-01-03T03:19:37.190Z,5.10
2018-01-03T03:22:04.820Z,5.03
2018-01-03T03:24:32.458Z,5.03
2018-01-03T03:27:00.027Z,5.75
2018-01-03T03:29:27.603Z,7.30
2018-01-03T03:31:55.307Z,6.40
2018-01-03T03:34:22.957Z,5.07
2018-01-03T03:36:51.334Z,7.57
2018-01-03T03:39:18.865Z,7.57
2018-01-03T03:41:47.410Z,4.03
2018-01-03T03:44:16.255Z,7.72
2018-01-03T03:46:44.613Z,3.47
2018-01-03T03:49:12.733Z,4.28
2018-01-03T03:51:40.481Z,6.47
2018-01-03T03:54:08.520Z,5.20
2018-01-03T03:56:36.140Z,5.93
2018-01-03T03:59:03.672Z,5.05
2018-01-03T04:01:31.434Z,4.70
2018-01-03T04:03:59.238Z,4.05
2018-01-03T04:06:27.645Z,3.47
2018-01-03T04:08:55.175Z,3.62
2018-01-03T04:11:22.726Z,5.05
2018-01-03T04:13:50.205Z,4.80
2018-01-03T04:16:17.809Z,3.67
2018-01-03T04:18:45.290Z,3.47
2018-01-03T04:21:12.840Z,2.58
2018-01-03T04:23:40.321Z,2.75
2018-01-03T04:26:08.622Z,2.62
2018-01-03T04:31:45.983Z,3.17
2018-01-03T04:37:09.565Z,4.97
2018-01-03T04:39:48.116Z,3.30
2018-01-03T04:42:38.887Z,5.15
2018-01-03T04:45:15.189Z,4.53
2018-01-03T04:55:59.628Z,4.53
2018-01-03T04:58:30.463Z,2.90
2018-01-03T05:01:02.707Z,2.53
2018-01-03T05:03:41.324Z,3.53
2018-01-03T05:06:13.315Z,3.33
2018-01-03T05:08:50.066Z,3.10
2018-01-03T05:11:22.295Z,3.92
2018-01-03T05:13:51.178Z,2.70
2018-01-03T05:16:30.688Z,2.53
2018-01-03T05:19:04.839Z,2.20
2018-01-03T07:04:08.151Z,1.27
2018-01-03T07:09:20.657Z,1.25
2018-01-03T07:11:55.986Z,1.60
2018-01-03T07:14:40.597Z,1.90
2018-01-03T07:19:44.553Z,2.20
2018-01-03T07:22:31.069Z,2.40
2018-01-03T07:27:44.600Z,4.82
2018-01-03T07:30:16.745Z,4.95
2018-01-03T07:32:48.147Z,3.67
2018-01-03T07:35:25.605Z,2.80
2018-01-03T07:40:27.985Z,6.22
2018-01-03T07:42:55.643Z,3.62
2018-01-03T07:45:24.105Z,4.10
2018-01-03T07:47:55.369Z,4.95
2018-01-03T07:50:26.629Z,6.32
2018-01-03T07:52:57.188Z,4.45
2018-01-03T07:55:24.856Z,6.40
2018-01-03T07:57:52.561Z,10.25
2018-01-03T08:00:20.529Z,6.00
2018-01-03T08:02:48.763Z,7.37
2018-01-03T08:05:18.246Z,3.70
2018-01-03T08:07:53.904Z,11.82
2018-01-03T08:10:21.650Z,7.60
2018-01-03T08:12:49.169Z,6.75
2018-01-03T08:15:16.925Z,22.87
2018-01-03T08:17:44.630Z,7.15
2018-01-03T08:20:13.210Z,8.98
2018-01-03T08:22:40.700Z,4.80
2018-01-03T08:25:08.943Z,13.10
2018-01-03T08:27:36.404Z,16.02
2018-01-03T08:30:04.073Z,17.83
2018-01-03T08:32:31.575Z,11.57
2018-01-03T08:34:59.402Z,8.20
2018-01-03T08:37:26.870Z,8.48
2018-01-03T08:39:55.253Z,7.35
2018-01-03T08:42:23.525Z,14.15
2018-01-03T08:44:51.801Z,13.27
2018-01-03T08:47:19.310Z,5.57
2018-01-03T08:49:46.833Z,12.70
2018-01-03T08:52:14.331Z,12.35
2018-01-03T08:54:41.885Z,6.55
2018-01-03T08:57:09.403Z,8.32
2018-01-03T08:59:36.963Z,11.60
2018-01-03T09:02:04.467Z,8.93
2018-01-03T09:04:31.972Z,10.02
2018-01-03T09:07:00.240Z,7.60
2018-01-03T09:09:28.516Z,7.72
2018-01-03T09:11:56.806Z,11.07
2018-01-03T09:14:24.346Z,6.85
2018-01-03T09:16:51.839Z,7.72
2018-01-03T09:19:19.387Z,10.52
2018-01-03T09:21:46.938Z,11.90
2018-01-03T09:24:14.405Z,14.20
2018-01-03T09:26:41.859Z,11.18
2018-01-03T09:29:09.325Z,6.75
2018-01-03T09:31:36.779Z,16.27
2018-01-03T09:34:04.303Z,15.00
2018-01-03T09:36:31.770Z,10.20
2018-01-03T09:39:00.058Z,16.40
2018-01-03T09:41:27.560Z,11.55
2018-01-03T09:43:55.138Z,13.82
2018-01-03T09:46:22.675Z,7.95
2018-01-03T09:48:50.213Z,14.55
2018-01-03T09:51:17.776Z,15.27
2018-01-03T09:53:45.372Z,9.95
2018-01-03T09:56:12.872Z,8.00
2018-01-03T09:58:40.389Z,9.35
2018-01-03T10:01:08.013Z,8.65
2018-01-03T10:03:35.520Z,8.32
2018-01-03T10:06:03.028Z,10.95
2018-01-03T10:08:30.486Z,10.25
2018-01-03T10:10:57.980Z,9.73
2018-01-03T10:13:25.582Z,8.18
2018-01-03T10:15:53.833Z,11.60
2018-01-03T10:18:21.319Z,11.55
2018-01-03T10:20:48.832Z,17.83
2018-01-03T10:23:16.333Z,11.40
2018-01-03T10:25:44.106Z,13.43
2018-01-03T10:28:11.641Z,7.62
2018-01-03T10:30:39.227Z,6.57
2018-01-03T10:33:07.721Z,4.85
2018-01-03T10:35:35.289Z,6.68
2018-01-03T10:38:03.844Z,15.13
2018-01-03T10:40:35.050Z,14.48
2018-01-03T10:43:05.000Z,5.57
2018-01-03T10:45:32.790Z,8.93
2018-01-03T10:48:00.539Z,7.15
2018-01-03T10:50:35.248Z,12.05
2018-01-03T10:53:03.024Z,12.60
2018-01-03T10:55:31.875Z,11.38
2018-01-03T10:57:59.777Z,17.83
2018-01-03T11:00:27.390Z,6.25
2018-01-03T11:02:55.001Z,13.93
2018-01-03T11:05:22.778Z,7.05
2018-01-03T11:07:50.266Z,13.35
2018-01-03T11:10:19.431Z,13.68
2018-01-03T11:12:47.144Z,7.05
2018-01-03T11:15:14.742Z,7.68
2018-01-03T11:17:46.096Z,11.50
2018-01-03T11:22:53.839Z,17.02
2018-01-03T11:25:21.381Z,11.55
2018-01-03T11:27:48.992Z,14.57
2018-01-03T11:30:16.625Z,13.43
2018-01-03T11:32:44.344Z,4.43
2018-01-03T11:35:11.947Z,9.57
2018-01-03T11:37:39.567Z,7.45
2018-01-03T11:40:07.051Z,8.82
2018-01-03T11:45:35.808Z,8.10
2018-01-03T11:48:08.497Z,8.85
2018-01-03T11:50:41.052Z,17.20
2018-01-03T11:53:11.314Z,13.40
2018-01-03T11:55:42.457Z,4.40
2018-01-03T11:58:10.388Z,10.52
2018-01-03T12:00:38.198Z,14.55
2018-01-03T12:03:05.949Z,10.95
2018-01-03T12:05:33.761Z,6.87
2018-01-03T12:08:05.278Z,9.63
2018-01-03T12:10:33.009Z,4.97
2018-01-03T12:13:00.469Z,8.35
2018-01-03T12:15:27.954Z,6.35
2018-01-03T12:17:56.308Z,10.52
2018-01-03T12:20:23.822Z,10.63
2018-01-03T12:22:51.551Z,8.65
2018-01-03T12:25:19.028Z,6.93
2018-01-03T12:27:46.518Z,4.25
2018-01-03T12:30:13.990Z,6.03
2018-01-03T12:32:41.443Z,6.50
2018-01-03T12:35:08.899Z,6.30
2018-01-03T12:37:36.642Z,6.28
2018-01-03T12:40:04.561Z,6.12
2018-01-03T12:42:32.094Z,6.65
2018-01-03T12:44:59.696Z,8.38
2018-01-03T12:47:27.167Z,3.30
2018-01-03T12:49:54.645Z,5.65
2018-01-03T12:52:26.663Z,4.68
2018-01-03T12:54:54.121Z,10.68
2018-01-03T12:57:21.615Z,3.37
2018-01-03T12:59:49.083Z,8.75
2018-01-03T13:02:16.561Z,5.07
2018-01-03T13:04:44.818Z,5.18
2018-01-03T13:07:12.314Z,5.00
2018-01-03T13:09:39.832Z,1.50
2018-01-03T13:12:07.313Z,4.60
2018-01-03T13:14:34.779Z,6.28
2018-01-03T13:17:02.238Z,3.45
2018-01-03T13:19:30.503Z,5.03
2018-01-03T13:21:57.988Z,5.25
2018-01-03T13:24:25.537Z,1.58
2018-01-03T13:26:53.110Z,8.20
2018-01-03T13:29:20.642Z,6.22
2018-01-03T13:31:48.209Z,3.95
2018-01-03T13:34:15.768Z,4.78
2018-01-03T13:36:43.350Z,5.45
2018-01-03T13:39:10.987Z,2.25
2018-01-03T13:41:39.238Z,0.70
2018-01-03T13:44:06.700Z,1.33
2018-01-03T13:46:34.205Z,1.80
2018-01-03T13:49:01.671Z,2.35
2018-01-03T13:51:29.378Z,2.35
2018-01-03T13:53:56.851Z,3.30
2018-01-03T13:56:24.378Z,1.52
2018-01-03T13:58:52.588Z,1.77
2018-01-03T14:01:20.050Z,1.00
2018-01-03T14:03:47.567Z,0.80
2018-01-03T14:06:15.055Z,1.15
2018-01-03T14:08:42.576Z,0.95
2018-01-03T14:11:10.056Z,1.75
2018-01-03T14:13:37.526Z,0.95
2018-01-03T14:16:05.078Z,2.17
2018-01-03T14:18:32.564Z,2.30
2018-01-03T14:21:00.016Z,1.27
2018-01-03T14:23:27.476Z,1.60
2018-01-03T14:25:54.970Z,1.87
2018-01-03T14:28:23.028Z,1.17
2018-01-03T14:30:50.504Z,1.80
2018-01-03T14:33:18.004Z,0.90
2018-01-03T14:35:45.474Z,2.05
2018-01-03T14:38:12.934Z,3.65
2018-01-03T14:40:40.419Z,1.55
2018-01-03T14:43:07.895Z,1.90
2018-01-03T14:45:35.397Z,2.53
2018-01-03T14:48:02.894Z,1.02
2018-01-03T14:50:30.370Z,2.65
2018-01-03T14:52:57.871Z,1.70
2018-01-03T14:55:25.331Z,4.10
2018-01-03T14:57:52.811Z,2.00
2018-01-03T15:00:20.331Z,1.73
2018-01-03T15:02:47.954Z,5.70
2018-01-03T15:05:15.499Z,3.55
2018-01-03T15:07:42.905Z,6.50
2018-01-03T15:10:11.221Z,3.17
2018-01-03T15:12:38.694Z,7.35
2018-01-03T15:15:06.187Z,5.50
2018-01-03T15:17:33.653Z,3.17
2018-01-03T15:20:01.897Z,5.82
2018-01-03T15:22:29.377Z,2.40
2018-01-03T15:24:56.859Z,4.87
2018-01-03T15:27:24.342Z,3.70
2018-01-03T15:29:51.815Z,8.25
2018-01-03T15:32:19.291Z,6.80
2018-01-03T15:34:46.777Z,8.57
2018-01-03T15:37:14.246Z,4.30
2018-01-03T15:39:41.742Z,7.00
2018-01-03T15:42:09.198Z,8.15
2018-01-03T15:44:36.720Z,3.37
2018-01-03T15:47:04.425Z,7.97
2018-01-03T15:49:31.990Z,10.07
2018-01-03T15:51:59.454Z,6.47
2018-01-03T15:54:26.921Z,6.43
2018-01-03T15:56:54.442Z,6.90
2018-01-03T15:59:22.525Z,7.72
2018-01-03T16:01:49.982Z,6.37
2018-01-03T16:04:17.470Z,5.00
2018-01-03T16:06:44.920Z,6.10
2018-01-03T16:09:12.386Z,6.30
2018-01-03T16:11:40.249Z,2.87
2018-01-03T16:14:07.693Z,2.97
2018-01-03T16:16:35.149Z,1.48
2018-01-03T16:19:02.617Z,4.22
2018-01-03T16:21:30.851Z,3.70
2018-01-03T16:23:58.404Z,4.20
2018-01-03T16:26:25.865Z,3.60
2018-01-03T16:28:53.319Z,3.40
2018-01-03T16:31:20.794Z,3.25
2018-01-03T16:33:48.277Z,3.10
2018-01-03T16:36:15.745Z,4.07
2018-01-03T16:38:43.970Z,2.25
2018-01-03T16:41:11.438Z,3.67
2018-01-03T16:43:38.892Z,5.82
2018-01-03T16:46:06.347Z,4.43
2018-01-03T16:48:33.818Z,5.03
2018-01-03T16:51:01.276Z,3.17
2018-01-03T16:53:28.808Z,2.65
2018-01-03T16:55:56.373Z,3.87
2018-01-03T16:58:23.843Z,1.45
2018-01-03T17:00:51.307Z,3.15
2018-01-03T17:03:18.763Z,2.75
2018-01-03T17:05:47.192Z,2.92
2018-01-03T17:08:14.632Z,4.37
2018-01-03T17:10:42.913Z,3.25
2018-01-03T17:13:10.393Z,5.62
2018-01-03T17:15:38.557Z,7.37
2018-01-03T17:18:07.954Z,4.78
2018-01-03T17:20:35.502Z,7.12
2018-01-03T17:23:03.133Z,6.00
2018-01-03T17:25:30.650Z,11.73
2018-01-03T17:27:58.127Z,7.82
2018-01-03T17:30:25.638Z,8.27
2018-01-03T17:32:53.132Z,16.67
2018-01-03T17:35:20.866Z,7.32
2018-01-03T17:37:48.422Z,6.35
2018-01-03T17:40:15.925Z,6.25
2018-01-03T17:42:43.429Z,4.90
2018-01-03T17:45:11.206Z,6.62
2018-01-03T17:47:38.800Z,2.95
2018-01-03T17:50:06.630Z,2.95
2018-01-03T17:52:34.238Z,5.62
2018-01-03T17:55:02.068Z,4.50
2018-01-03T17:57:29.862Z,11.52
2018-01-03T17:59:58.296Z,3.15
2018-01-03T18:02:26.446Z,7.18
2018-01-03T18:04:55.472Z,6.32
2018-01-03T18:07:23.963Z,3.67
2018-01-03T18:09:51.511Z,1.98
2018-01-03T18:12:20.048Z,3.15
2018-01-03T18:14:47.706Z,5.78
2018-01-03T18:17:15.449Z,3.75
2018-01-03T18:19:42.960Z,2.60
2018-01-03T18:22:10.448Z,1.10
2018-01-03T18:24:38.611Z,2.30
2018-01-03T18:27:06.415Z,0.60
2018-01-03T18:29:33.918Z,3.03
2018-01-03T18:32:01.716Z,9.93
2018-01-03T18:34:29.285Z,1.42
2018-01-03T18:37:02.777Z,2.78
2018-01-03T18:39:32.868Z,6.20
2018-01-03T18:42:02.360Z,1.02
2018-01-03T18:44:29.873Z,3.65
2018-01-03T18:46:57.484Z,5.03
2018-01-03T18:49:29.240Z,0.77
2018-01-03T18:52:02.401Z,2.75
2018-01-03T18:54:30.502Z,4.80
2018-01-03T18:57:01.481Z,4.78
2018-01-03T18:59:31.563Z,5.05
2018-01-03T19:01:59.160Z,6.40
2018-01-03T19:04:27.707Z,1.77
2018-01-03T19:06:56.190Z,5.60
2018-01-03T19:09:23.647Z,5.80
2018-01-03T19:11:51.149Z,4.75
2018-01-03T19:14:18.622Z,7.32
2018-01-03T19:16:46.094Z,6.47
2018-01-03T19:19:13.613Z,4.35
2018-01-03T19:21:41.089Z,5.68
2018-01-03T19:24:08.608Z,3.08
2018-01-03T19:26:36.843Z,4.87
2018-01-03T19:29:04.308Z,6.40
2018-01-03T19:31:32.590Z,4.12
2018-01-03T19:34:00.059Z,9.75
2018-01-03T19:36:27.549Z,5.50
2018-01-03T19:38:55.010Z,12.75
2018-01-03T19:41:22.476Z,4.28
2018-01-03T19:43:51.018Z,6.70
2018-01-03T19:46:19.380Z,8.65
2018-01-03T19:48:47.006Z,5.80
2018-01-03T19:51:14.468Z,9.20
2018-01-03T19:53:41.925Z,8.60
2018-01-03T19:56:09.507Z,9.55
2018-01-03T19:58:37.309Z,14.63
2018-01-03T20:01:07.973Z,11.50
2018-01-03T20:03:35.445Z,15.32
2018-01-03T20:06:02.930Z,29.30
2018-01-03T20:08:30.494Z,20.37
2018-01-03T20:10:57.973Z,18.75
2018-01-03T20:13:26.523Z,19.70
2018-01-03T20:15:54.014Z,20.95
2018-01-03T20:18:21.721Z,17.17
2018-01-03T20:20:49.189Z,33.47
2018-01-03T20:23:17.958Z,22.30
2018-01-03T20:25:52.727Z,18.20
2018-01-03T20:28:20.238Z,26.02
2018-01-03T20:30:47.721Z,30.33
2018-01-03T20:33:16.121Z,23.50
2018-01-03T20:35:43.638Z,25.02
2018-01-03T20:38:11.229Z,19.08
2018-01-03T20:40:39.484Z,10.05
2018-01-03T20:43:06.955Z,12.65
2018-01-03T20:45:35.199Z,24.40
2018-01-03T20:48:02.659Z,29.23
2018-01-03T20:50:30.131Z,19.08
2018-01-03T20:52:58.799Z,25.60
2018-01-03T20:55:26.241Z,19.33
2018-01-03T20:57:56.665Z,21.45
2018-01-03T21:00:24.132Z,18.95
2018-01-03T21:02:51.613Z,14.43
2018-01-03T21:05:19.092Z,13.18
2018-01-03T21:07:46.554Z,16.77
2018-01-03T21:10:14.055Z,15.75
2018-01-03T21:12:41.709Z,19.30
2018-01-03T21:15:09.193Z,12.75
2018-01-03T21:17:36.665Z,14.25
2018-01-03T21:20:04.143Z,15.10
2018-01-03T21:22:31.672Z,13.38
2018-01-03T21:24:59.145Z,10.20
2018-01-03T21:27:26.594Z,11.15
2018-01-03T21:29:54.055Z,11.32
2018-01-03T21:32:21.509Z,9.77
2018-01-03T21:34:48.987Z,20.62
2018-01-03T21:37:16.459Z,18.45
2018-01-03T21:39:43.957Z,12.70
2018-01-03T21:42:11.655Z,14.45
2018-01-03T21:44:40.093Z,18.02
2018-01-03T21:47:07.977Z,15.90
2018-01-03T21:49:35.446Z,16.02
2018-01-03T21:52:02.907Z,14.95
2018-01-03T21:54:34.868Z,12.35
2018-01-03T21:57:02.330Z,12.73
2018-01-03T21:59:34.098Z,16.35
2018-01-03T22:02:15.547Z,17.10
2018-01-03T22:04:43.194Z,13.62
2018-01-03T22:07:12.431Z,17.73
2018-01-03T22:09:41.014Z,13.23
2018-01-03T22:12:08.559Z,17.17
2018-01-03T22:14:36.053Z,18.55
2018-01-03T22:17:03.588Z,19.30
2018-01-03T22:19:31.090Z,14.20
2018-01-03T22:21:58.559Z,23.92
2018-01-03T22:24:26.040Z,17.33
2018-01-03T22:26:53.634Z,13.85
2018-01-03T22:29:21.863Z,13.30
2018-01-03T22:31:49.371Z,16.65
2018-01-03T22:34:18.397Z,25.80
2018-01-03T22:36:45.933Z,12.18
2018-01-03T22:39:13.516Z,18.42
2018-01-03T22:41:40.978Z,14.15
2018-01-03T22:44:08.497Z,18.95
2018-01-03T22:46:36.066Z,16.48
2018-01-03T22:49:04.057Z,14.43
2018-01-03T22:51:31.827Z,17.60
2018-01-03T22:53:59.355Z,18.52
2018-01-03T22:56:28.050Z,12.30
2018-01-03T22:58:55.744Z,14.63
2018-01-03T23:01:23.529Z,14.40
2018-01-03T23:03:51.124Z,20.52
2018-01-03T23:06:18.686Z,23.12
2018-01-03T23:08:46.358Z,11.30
2018-01-03T23:11:13.884Z,8.50
2018-01-03T23:13:41.371Z,9.95
2018-01-03T23:16:08.858Z,8.65
2018-01-03T23:18:36.378Z,11.57
2018-01-03T23:21:03.890Z,11.40
2018-01-03T23:23:31.344Z,17.48
2018-01-03T23:25:58.857Z,16.73
2018-01-03T23:28:26.363Z,11.25
2018-01-03T23:30:53.824Z,20.25
2018-01-03T23:33:21.506Z,11.63
2018-01-03T23:35:48.986Z,17.62
2018-01-03T23:38:16.802Z,15.68
2018-01-03T23:40:44.371Z,13.52
2018-01-03T23:43:12.848Z,21.87
2018-01-03T23:45:41.909Z,21.73
2018-01-03T23:48:09.701Z,13.00
2018-01-03T23:50:37.270Z,11.57
2018-01-03T23:53:04.774Z,18.70
2018-01-03T23:55:32.293Z,15.43
2018-01-03T23:58:04.107Z,17.05
